Time;durP1;ratioP1;P1;durP2;ratioP2;P2;SDS_P1;SDS_P2;PMS_P1;PMS_P2;Temp;Humidity;BMP_temperature;BMP_pressure;BME280_temperature;BME280_humidity;BME280_pressure;Samples;Min_cycle;Max_cycle;Signal;HPM_P1;HPM_P2
2022/07/31 00:00:56;;;;;;;;;;;18.60;99.90;;;;;;4131486;28;20281;-55
2022/07/31 00:03:04;;;;;;;;;;;18.60;99.90;;;;;;4142365;28;20475;-54
2022/07/31 00:05:07;;;;;;;;;;;18.60;99.90;;;;;;4130276;28;20401;-54
2022/07/31 00:07:14;;;;;;;;;;;18.60;99.90;;;;;;4143493;28;19928;-55
2022/07/31 00:09:17;;;;;;;;;;;18.50;99.90;;;;;;4141653;28;20126;-55
2022/07/31 00:11:42;;;;;;;;;;;18.40;99.90;;;;;;4139614;28;20519;-55
2022/07/31 00:13:45;;;;;;;;;;;18.30;99.90;;;;;;4143248;28;19928;-54
2022/07/31 00:16:00;;;;;;;;;;;18.50;99.90;;;;;;4131838;28;20366;-55
2022/07/31 00:18:22;;;;;;;;;;;18.40;99.90;;;;;;4139335;28;20271;-55
2022/07/31 00:20:24;;;;;;;;;;;18.40;99.90;;;;;;4142443;28;19960;-55
2022/07/31 00:22:27;;;;;;;;;;;18.20;99.90;;;;;;4139243;28;19929;-55
2022/07/31 00:24:30;;;;;;;;;;;18.20;99.90;;;;;;4142162;28;20020;-55
2022/07/31 00:26:46;;;;;;;;;;;18.20;99.90;;;;;;4136649;28;19929;-55
2022/07/31 00:28:49;;;;;;;;;;;18.10;99.90;;;;;;4132113;28;19921;-56
2022/07/31 00:30:55;;;;;;;;;;;18.00;99.90;;;;;;4137645;28;19960;-55
2022/07/31 00:32:59;;;;;;;;;;;17.90;99.90;;;;;;4142473;28;19935;-55
2022/07/31 00:35:00;;;;;;;;;;;17.80;99.90;;;;;;4130803;28;19933;-55
2022/07/31 00:37:06;;;;;;;;;;;17.70;99.90;;;;;;4128696;28;19932;-55
2022/07/31 00:39:09;;;;;;;;;;;17.70;99.90;;;;;;4128397;28;19968;-56
2022/07/31 00:41:11;;;;;;;;;;;17.60;99.90;;;;;;4128144;28;19921;-54
2022/07/31 00:43:13;;;;;;;;;;;17.50;99.90;;;;;;4132501;28;19956;-54
2022/07/31 00:45:16;;;;;;;;;;;17.40;99.90;;;;;;4134290;28;19930;-54
2022/07/31 00:47:18;;;;;;;;;;;17.50;99.90;;;;;;4128691;28;19925;-55
2022/07/31 00:49:28;;;;;;;;;;;17.60;99.90;;;;;;4140682;28;20044;-56
2022/07/31 00:51:39;;;;;;;;;;;17.70;99.90;;;;;;4128775;28;19929;-55
2022/07/31 00:53:41;;;;;;;;;;;17.60;99.90;;;;;;4130581;28;19926;-56
2022/07/31 00:55:43;;;;;;;;;;;17.50;99.90;;;;;;4129019;28;19932;-54
2022/07/31 00:57:52;;;;;;;;;;;17.50;99.90;;;;;;4136562;28;19926;-56
2022/07/31 00:59:57;;;;;;;;;;;17.30;99.90;;;;;;4145742;28;19929;-56
2022/07/31 01:02:01;;;;;;;;;;;17.10;99.90;;;;;;4147263;28;19928;-55
2022/07/31 01:04:02;;;;;;;;;;;17.00;99.90;;;;;;4144893;28;20381;-55
2022/07/31 01:06:05;;;;;;;;;;;17.10;99.90;;;;;;4131782;28;19921;-55
2022/07/31 01:08:08;;;;;;;;;;;17.20;99.90;;;;;;4137739;28;19929;-55
2022/07/31 01:10:22;;;;;;;;;;;17.20;99.90;;;;;;4132244;28;20036;-54
2022/07/31 01:12:32;;;;;;;;;;;17.20;99.90;;;;;;4144164;28;19921;-56
2022/07/31 01:14:45;;;;;;;;;;;17.20;99.90;;;;;;4146289;28;20522;-55
2022/07/31 01:16:52;;;;;;;;;;;17.20;99.90;;;;;;4147544;28;19922;-55
2022/07/31 01:18:56;;;;;;;;;;;17.10;99.90;;;;;;4134733;28;20532;-56
2022/07/31 01:21:01;;;;;;;;;;;17.00;99.90;;;;;;4131256;28;20345;-55
2022/07/31 01:23:15;;;;;;;;;;;17.00;99.90;;;;;;4136587;28;19953;-54
2022/07/31 01:25:23;;;;;;;;;;;16.90;99.90;;;;;;4146120;28;20412;-54
2022/07/31 01:27:31;;;;;;;;;;;16.90;99.90;;;;;;4132501;28;19929;-55
2022/07/31 01:29:53;;;;;;;;;;;17.00;99.90;;;;;;4145241;28;19921;-56
2022/07/31 01:31:55;;;;;;;;;;;16.80;99.90;;;;;;4147429;28;19976;-54
2022/07/31 01:34:04;;;;;;;;;;;16.80;99.90;;;;;;4131253;28;19926;-56
2022/07/31 01:36:09;;;;;;;;;;;16.80;99.90;;;;;;4130984;28;20417;-54
2022/07/31 01:38:20;;;;;;;;;;;16.70;99.90;;;;;;4131402;28;19969;-55
2022/07/31 01:40:24;;;;;;;;;;;16.80;99.90;;;;;;4145560;28;19957;-56
2022/07/31 01:42:27;;;;;;;;;;;16.90;99.90;;;;;;4138851;28;19932;-56
2022/07/31 01:44:35;;;;;;;;;;;16.80;99.90;;;;;;4146973;28;19921;-56
2022/07/31 01:46:40;;;;;;;;;;;16.70;99.90;;;;;;4131300;28;20012;-56
2022/07/31 01:48:43;;;;;;;;;;;16.60;99.90;;;;;;4146181;28;19925;-55
2022/07/31 01:50:54;;;;;;;;;;;16.50;99.90;;;;;;4147409;28;19960;-56
2022/07/31 01:53:20;;;;;;;;;;;16.60;99.90;;;;;;4130681;28;19929;-55
2022/07/31 01:55:30;;;;;;;;;;;16.60;99.90;;;;;;4139382;28;19937;-55
2022/07/31 01:57:33;;;;;;;;;;;16.60;99.90;;;;;;4146140;28;19925;-55
2022/07/31 01:59:38;;;;;;;;;;;16.70;99.90;;;;;;4133453;28;19930;-54
2022/07/31 02:01:52;;;;;;;;;;;16.70;99.90;;;;;;4140539;28;20012;-56
2022/07/31 02:04:16;;;;;;;;;;;;;;;;;;;;;
2022/07/31 02:06:23;;;;;;;;;;;16.50;99.90;;;;;;4157821;28;20427;-56
2022/07/31 02:08:28;;;;;;;;;;;16.50;99.90;;;;;;4141428;28;19929;-56
2022/07/31 02:10:31;;;;;;;;;;;16.40;99.90;;;;;;4134257;28;19925;-56
2022/07/31 02:12:36;;;;;;;;;;;16.40;99.90;;;;;;4146310;28;19929;-56
2022/07/31 02:14:41;;;;;;;;;;;16.30;99.90;;;;;;4144747;28;19960;-56
2022/07/31 02:16:45;;;;;;;;;;;16.40;99.90;;;;;;4143671;28;19957;-55
2022/07/31 02:18:51;;;;;;;;;;;16.30;99.90;;;;;;4146265;28;20309;-54
2022/07/31 02:20:56;;;;;;;;;;;16.30;99.90;;;;;;4146603;28;20666;-54
2022/07/31 02:22:58;;;;;;;;;;;16.20;99.90;;;;;;4145518;28;20282;-56
2022/07/31 02:25:02;;;;;;;;;;;16.10;99.90;;;;;;4134396;28;19953;-55
2022/07/31 02:27:04;;;;;;;;;;;16.10;99.90;;;;;;4130136;28;19922;-56
2022/07/31 02:29:10;;;;;;;;;;;16.10;99.90;;;;;;4135508;28;19929;-55
2022/07/31 02:31:21;;;;;;;;;;;16.10;99.90;;;;;;4133725;28;19925;-56
2022/07/31 02:33:25;;;;;;;;;;;16.00;99.90;;;;;;4128608;28;20333;-56
2022/07/31 02:35:29;;;;;;;;;;;16.00;99.90;;;;;;4130256;28;19925;-55
2022/07/31 02:37:32;;;;;;;;;;;15.90;99.90;;;;;;4130661;28;19932;-55
2022/07/31 02:40:03;;;;;;;;;;;15.90;99.90;;;;;;4133793;28;20365;-55
2022/07/31 02:42:05;;;;;;;;;;;16.10;99.90;;;;;;4136169;28;19928;-56
2022/07/31 02:44:13;;;;;;;;;;;16.10;99.90;;;;;;4141611;28;19922;-56
2022/07/31 02:46:17;;;;;;;;;;;16.00;99.90;;;;;;4142685;28;19925;-55
2022/07/31 02:48:22;;;;;;;;;;;16.00;99.90;;;;;;4130239;28;19922;-54
2022/07/31 02:50:25;;;;;;;;;;;15.90;99.90;;;;;;4139698;28;19926;-55
2022/07/31 02:52:27;;;;;;;;;;;16.00;99.90;;;;;;4135628;28;19925;-54
2022/07/31 02:54:30;;;;;;;;;;;15.90;99.90;;;;;;4144705;28;19956;-55
2022/07/31 02:56:33;;;;;;;;;;;15.90;99.90;;;;;;4142753;28;19921;-56
2022/07/31 02:58:40;;;;;;;;;;;15.80;99.90;;;;;;4138024;28;19926;-56
2022/07/31 03:00:44;;;;;;;;;;;15.80;99.90;;;;;;4144557;28;19921;-55
2022/07/31 03:02:47;;;;;;;;;;;15.80;99.90;;;;;;4133841;28;20210;-54
2022/07/31 03:04:52;;;;;;;;;;;15.70;99.90;;;;;;4147341;28;19965;-54
2022/07/31 03:06:54;;;;;;;;;;;15.60;99.90;;;;;;4131150;28;20024;-56
2022/07/31 03:09:00;;;;;;;;;;;15.50;99.90;;;;;;4140383;28;19929;-55
2022/07/31 03:11:03;;;;;;;;;;;15.60;99.90;;;;;;4134191;28;20381;-56
2022/07/31 03:13:06;;;;;;;;;;;15.60;99.90;;;;;;4145465;28;20428;-55
2022/07/31 03:15:12;;;;;;;;;;;15.50;99.90;;;;;;4136295;28;19967;-55
2022/07/31 03:17:15;;;;;;;;;;;15.40;99.90;;;;;;4132072;28;20297;-54
2022/07/31 03:19:22;;;;;;;;;;;15.30;99.90;;;;;;4145500;28;19995;-55
2022/07/31 03:21:35;;;;;;;;;;;15.30;99.90;;;;;;4135119;28;20365;-55
2022/07/31 03:23:39;;;;;;;;;;;15.30;99.90;;;;;;4127937;28;19953;-56
2022/07/31 03:25:41;;;;;;;;;;;15.40;99.90;;;;;;4145876;28;19932;-55
2022/07/31 03:27:45;;;;;;;;;;;15.40;99.90;;;;;;4137940;28;19926;-56
2022/07/31 03:29:49;;;;;;;;;;;15.40;99.90;;;;;;4128976;28;19926;-56
2022/07/31 03:31:52;;;;;;;;;;;15.40;99.90;;;;;;4144285;28;19991;-55
2022/07/31 03:34:14;;;;;;;;;;;15.40;99.90;;;;;;4136843;28;19921;-55
2022/07/31 03:36:18;;;;;;;;;;;15.50;99.90;;;;;;4129125;28;19936;-55
2022/07/31 03:38:24;;;;;;;;;;;15.60;99.90;;;;;;4129219;28;19945;-56
2022/07/31 03:40:41;;;;;;;;;;;15.50;99.90;;;;;;4139374;28;19926;-55
2022/07/31 03:42:44;;;;;;;;;;;15.30;99.90;;;;;;4145237;28;20040;-54
2022/07/31 03:44:49;;;;;;;;;;;15.30;99.90;;;;;;4145210;28;20312;-55
2022/07/31 03:46:54;;;;;;;;;;;15.20;99.90;;;;;;4145195;28;19921;-54
2022/07/31 03:48:57;;;;;;;;;;;15.10;99.90;;;;;;4144962;28;19921;-55
2022/07/31 03:51:06;;;;;;;;;;;15.00;99.90;;;;;;4145111;28;19925;-55
2022/07/31 03:53:09;;;;;;;;;;;15.00;99.90;;;;;;4145242;28;19969;-55
2022/07/31 03:55:13;;;;;;;;;;;15.00;99.90;;;;;;4143946;28;20470;-55
2022/07/31 03:57:16;;;;;;;;;;;15.10;99.90;;;;;;4130487;28;19976;-55
2022/07/31 03:59:19;;;;;;;;;;;15.10;99.90;;;;;;4134032;28;19929;-55
2022/07/31 04:01:22;;;;;;;;;;;15.10;99.90;;;;;;4145068;28;19968;-55
2022/07/31 04:03:29;;;;;;;;;;;15.10;99.90;;;;;;4135199;28;19930;-56
2022/07/31 04:05:31;;;;;;;;;;;15.10;99.90;;;;;;4144598;28;19921;-56
2022/07/31 04:07:34;;;;;;;;;;;15.20;99.90;;;;;;4145159;28;19927;-56
2022/07/31 04:09:40;;;;;;;;;;;15.20;99.90;;;;;;4142086;28;19970;-55
2022/07/31 04:11:54;;;;;;;;;;;15.20;99.90;;;;;;4130856;28;19978;-56
2022/07/31 04:13:58;;;;;;;;;;;15.10;99.90;;;;;;4144537;28;20047;-55
2022/07/31 04:16:01;;;;;;;;;;;15.00;99.90;;;;;;4134015;28;20345;-55
2022/07/31 04:18:05;;;;;;;;;;;14.90;99.90;;;;;;4138350;28;19922;-56
2022/07/31 04:20:08;;;;;;;;;;;14.80;99.90;;;;;;4145256;28;20044;-55
2022/07/31 04:22:10;;;;;;;;;;;14.90;99.90;;;;;;4135642;28;20412;-55
2022/07/31 04:24:32;;;;;;;;;;;14.80;99.90;;;;;;4130593;28;19921;-54
2022/07/31 04:26:36;;;;;;;;;;;14.70;99.90;;;;;;4145130;28;20008;-54
2022/07/31 04:28:46;;;;;;;;;;;14.60;99.90;;;;;;4139108;28;19921;-55
2022/07/31 04:30:49;;;;;;;;;;;14.60;99.90;;;;;;4129124;28;20049;-55
2022/07/31 04:32:51;;;;;;;;;;;14.50;99.90;;;;;;4132154;28;19929;-55
2022/07/31 04:34:54;;;;;;;;;;;14.60;99.90;;;;;;4140594;28;19921;-55
2022/07/31 04:36:58;;;;;;;;;;;14.70;99.90;;;;;;4145909;28;19983;-55
2022/07/31 04:39:02;;;;;;;;;;;14.70;99.90;;;;;;4146801;28;19921;-55
2022/07/31 04:41:05;;;;;;;;;;;14.70;99.90;;;;;;4139830;28;20310;-56
2022/07/31 04:43:11;;;;;;;;;;;14.70;99.90;;;;;;4134593;28;19929;-55
2022/07/31 04:45:21;;;;;;;;;;;14.70;99.90;;;;;;4147650;28;20396;-54
2022/07/31 04:47:23;;;;;;;;;;;14.70;99.90;;;;;;4141200;28;20385;-56
2022/07/31 04:49:32;;;;;;;;;;;14.80;99.90;;;;;;4135328;28;20399;-53
2022/07/31 04:51:43;;;;;;;;;;;14.80;99.90;;;;;;4132420;28;19930;-56
2022/07/31 04:53:46;;;;;;;;;;;14.90;99.90;;;;;;4137565;28;19921;-54
2022/07/31 04:58:15;;;;;;;;;;;14.90;99.90;;;;;;4141955;28;19925;-55
2022/07/31 05:00:19;;;;;;;;;;;15.00;99.90;;;;;;4147344;28;19961;-56
2022/07/31 05:02:22;;;;;;;;;;;15.00;99.90;;;;;;4146984;28;19921;-55
2022/07/31 05:04:30;;;;;;;;;;;15.00;99.90;;;;;;4131423;28;20263;-56
2022/07/31 05:06:47;;;;;;;;;;;15.00;99.90;;;;;;4144271;28;19961;-56
2022/07/31 05:08:50;;;;;;;;;;;14.90;99.90;;;;;;4131438;28;19921;-55
2022/07/31 05:13:14;;;;;;;;;;;15.00;99.90;;;;;;4131544;28;19921;-55
2022/07/31 05:15:18;;;;;;;;;;;14.90;99.90;;;;;;4131193;28;19925;-55
2022/07/31 05:17:21;;;;;;;;;;;14.90;99.90;;;;;;4143402;28;19943;-55
2022/07/31 05:19:28;;;;;;;;;;;14.90;99.90;;;;;;4145817;28;19921;-55
2022/07/31 05:21:32;;;;;;;;;;;14.90;99.90;;;;;;4145836;28;19929;-55
2022/07/31 05:23:39;;;;;;;;;;;14.90;99.90;;;;;;4129784;28;20004;-55
2022/07/31 05:25:44;;;;;;;;;;;15.00;99.90;;;;;;4138660;28;19968;-55
2022/07/31 05:27:47;;;;;;;;;;;15.10;99.90;;;;;;4145926;28;19971;-55
2022/07/31 05:29:53;;;;;;;;;;;15.10;99.90;;;;;;4132218;28;19926;-56
2022/07/31 05:31:59;;;;;;;;;;;15.20;99.90;;;;;;4137048;28;19929;-54
2022/07/31 05:34:03;;;;;;;;;;;15.40;99.90;;;;;;4147336;28;19921;-55
2022/07/31 05:36:06;;;;;;;;;;;15.40;99.90;;;;;;4134073;28;19922;-56
2022/07/31 05:38:09;;;;;;;;;;;15.40;99.90;;;;;;4135159;28;19933;-55
2022/07/31 05:40:18;;;;;;;;;;;15.50;99.90;;;;;;4135721;28;20290;-55
2022/07/31 05:42:20;;;;;;;;;;;15.50;99.90;;;;;;4129150;28;20108;-56
2022/07/31 05:44:43;;;;;;;;;;;15.70;99.90;;;;;;4143351;28;19925;-55
2022/07/31 05:46:46;;;;;;;;;;;15.70;99.90;;;;;;4126880;28;19961;-54
2022/07/31 05:48:54;;;;;;;;;;;15.70;99.90;;;;;;4112326;28;19917;-54
2022/07/31 05:51:00;;;;;;;;;;;15.70;99.90;;;;;;4111765;28;19957;-55
2022/07/31 05:53:07;;;;;;;;;;;15.60;99.90;;;;;;4112378;28;19922;-56
2022/07/31 05:55:11;;;;;;;;;;;15.70;99.90;;;;;;4125393;28;19937;-54
2022/07/31 05:57:14;;;;;;;;;;;15.80;99.90;;;;;;4115165;28;20317;-56
2022/07/31 05:59:37;;;;;;;;;;;15.90;99.90;;;;;;4112445;28;20024;-56
2022/07/31 06:01:39;;;;;;;;;;;16.00;99.90;;;;;;4124647;28;20460;-57
2022/07/31 06:03:42;;;;;;;;;;;16.20;99.90;;;;;;4127735;28;19925;-55
2022/07/31 06:05:53;;;;;;;;;;;16.30;99.90;;;;;;4128331;28;19965;-55
2022/07/31 06:07:56;;;;;;;;;;;16.40;99.90;;;;;;4123106;28;20335;-55
2022/07/31 06:10:07;;;;;;;;;;;16.50;99.90;;;;;;4122270;28;20305;-55
2022/07/31 06:12:09;;;;;;;;;;;16.60;99.90;;;;;;4112683;28;19933;-56
2022/07/31 06:14:13;;;;;;;;;;;16.90;99.90;;;;;;4123640;28;19922;-55
2022/07/31 06:16:15;;;;;;;;;;;17.10;99.90;;;;;;4123706;28;19989;-56
2022/07/31 06:18:20;;;;;;;;;;;17.20;99.90;;;;;;4111710;28;19969;-54
2022/07/31 06:20:23;;;;;;;;;;;17.80;99.90;;;;;;4122276;28;19922;-56
2022/07/31 06:22:25;;;;;;;;;;;18.00;99.90;;;;;;4127065;28;19928;-55
2022/07/31 06:24:47;;;;;;;;;;;18.40;99.90;;;;;;4134867;28;19968;-55
2022/07/31 06:26:49;;;;;;;;;;;18.30;99.90;;;;;;4141940;28;19929;-56
2022/07/31 06:29:01;;;;;;;;;;;18.30;99.90;;;;;;4143574;28;20460;-55
2022/07/31 06:31:20;;;;;;;;;;;18.20;99.90;;;;;;4143948;28;19957;-56
2022/07/31 06:33:23;;;;;;;;;;;18.20;99.90;;;;;;4146178;28;19952;-56
2022/07/31 06:35:38;;;;;;;;;;;18.20;99.90;;;;;;4140734;28;20427;-55
2022/07/31 06:37:40;;;;;;;;;;;18.30;99.90;;;;;;4145872;28;20399;-55
2022/07/31 06:39:44;;;;;;;;;;;18.50;99.90;;;;;;4143555;28;19921;-56
2022/07/31 06:41:59;;;;;;;;;;;18.60;99.90;;;;;;4129720;28;19921;-56
2022/07/31 06:44:02;;;;;;;;;;;18.70;99.90;;;;;;4139611;28;19944;-56
2022/07/31 06:46:05;;;;;;;;;;;18.70;99.90;;;;;;4131764;28;20394;-55
2022/07/31 06:48:12;;;;;;;;;;;18.90;99.90;;;;;;4132526;28;19991;-56
2022/07/31 06:50:15;;;;;;;;;;;19.00;99.90;;;;;;4135713;28;20333;-56
2022/07/31 06:52:17;;;;;;;;;;;19.20;99.90;;;;;;4132420;28;19964;-56
2022/07/31 06:54:26;;;;;;;;;;;19.40;99.90;;;;;;4141574;28;19979;-56
2022/07/31 06:56:29;;;;;;;;;;;19.50;99.90;;;;;;4142923;28;19928;-56
2022/07/31 06:58:32;;;;;;;;;;;19.70;99.90;;;;;;4135105;28;20350;-56
2022/07/31 07:00:35;;;;;;;;;;;19.80;99.90;;;;;;4129675;28;19972;-55
2022/07/31 07:02:37;;;;;;;;;;;20.10;99.90;;;;;;4130278;28;19926;-55
2022/07/31 07:04:40;;;;;;;;;;;20.30;99.90;;;;;;4129489;28;19933;-56
2022/07/31 07:06:59;;;;;;;;;;;20.60;99.90;;;;;;4130642;28;20743;-55
2022/07/31 07:09:03;;;;;;;;;;;20.80;99.90;;;;;;4144117;28;19926;-56
2022/07/31 07:11:15;;;;;;;;;;;20.80;99.90;;;;;;4143124;28;19921;-55
2022/07/31 07:13:20;;;;;;;;;;;20.90;99.90;;;;;;4132052;28;19988;-55
2022/07/31 07:15:23;;;;;;;;;;;21.50;99.90;;;;;;4141979;28;19925;-57
2022/07/31 07:17:25;;;;;;;;;;;21.50;99.90;;;;;;4133349;28;19952;-55
2022/07/31 07:19:31;;;;;;;;;;;21.50;99.90;;;;;;4145699;28;19987;-56
2022/07/31 07:21:33;;;;;;;;;;;21.50;99.90;;;;;;4134625;28;19922;-56
2022/07/31 07:23:36;;;;;;;;;;;21.60;99.90;;;;;;4129307;28;19921;-56
2022/07/31 07:25:40;;;;;;;;;;;21.70;99.90;;;;;;4133924;28;20206;-56
2022/07/31 07:27:43;;;;;;;;;;;21.80;99.90;;;;;;4138248;28;20019;-55
2022/07/31 07:29:45;;;;;;;;;;;22.00;99.90;;;;;;4145655;28;19922;-56
2022/07/31 07:31:56;;;;;;;;;;;22.10;99.90;;;;;;4130846;28;19921;-55
2022/07/31 07:34:00;;;;;;;;;;;22.20;99.90;;;;;;4136423;28;19933;-56
2022/07/31 07:36:06;;;;;;;;;;;22.30;99.90;;;;;;4141044;28;19928;-55
2022/07/31 07:38:11;;;;;;;;;;;22.60;99.90;;;;;;4143764;28;20304;-55
2022/07/31 07:40:18;;;;;;;;;;;22.70;99.90;;;;;;4144878;28;20316;-54
2022/07/31 07:42:22;;;;;;;;;;;22.80;99.90;;;;;;4132088;28;20405;-55
2022/07/31 07:44:25;;;;;;;;;;;22.90;99.90;;;;;;4133000;28;20421;-55
2022/07/31 07:46:31;;;;;;;;;;;23.10;99.90;;;;;;4138340;28;20348;-54
2022/07/31 07:48:41;;;;;;;;;;;23.40;99.30;;;;;;4142064;28;19932;-55
2022/07/31 07:50:44;;;;;;;;;;;23.60;99.00;;;;;;4136551;28;19937;-55
2022/07/31 07:52:49;;;;;;;;;;;23.90;98.80;;;;;;4138260;28;19925;-56
2022/07/31 07:54:52;;;;;;;;;;;24.00;97.40;;;;;;4138740;28;19922;-56
2022/07/31 07:56:56;;;;;;;;;;;24.10;96.80;;;;;;4139639;28;19921;-55
2022/07/31 07:59:00;;;;;;;;;;;24.20;96.60;;;;;;4111734;28;20178;-56
2022/07/31 08:01:03;;;;;;;;;;;24.40;96.10;;;;;;4143122;28;20041;-56
2022/07/31 08:03:05;;;;;;;;;;;24.60;95.80;;;;;;4144946;28;19922;-55
2022/07/31 08:05:44;;;;;;;;;;;25.00;96.90;;;;;;4137506;28;19922;-55
2022/07/31 08:07:46;;;;;;;;;;;25.20;96.00;;;;;;4141444;28;19971;-55
2022/07/31 08:09:50;;;;;;;;;;;25.60;96.90;;;;;;4143493;28;20359;-55
2022/07/31 08:11:52;;;;;;;;;;;25.90;95.60;;;;;;4144237;28;19922;-56
2022/07/31 08:13:55;;;;;;;;;;;26.00;94.20;;;;;;4144361;28;19933;-55
2022/07/31 08:15:58;;;;;;;;;;;25.90;94.30;;;;;;4141197;28;19995;-55
2022/07/31 08:18:03;;;;;;;;;;;25.90;94.70;;;;;;4144305;28;19929;-55
2022/07/31 08:20:07;;;;;;;;;;;25.90;94.30;;;;;;4131104;28;19932;-56
2022/07/31 08:22:10;;;;;;;;;;;26.10;94.00;;;;;;4143564;28;19936;-55
2022/07/31 08:24:15;;;;;;;;;;;26.40;93.90;;;;;;4139131;28;20020;-55
2022/07/31 08:26:18;;;;;;;;;;;26.40;93.30;;;;;;4127321;28;20364;-57
2022/07/31 08:28:23;;;;;;;;;;;26.60;94.70;;;;;;4156971;28;19929;-56
2022/07/31 08:30:30;;;;;;;;;;;27.10;94.80;;;;;;4159462;28;19925;-55
2022/07/31 08:32:33;;;;;;;;;;;27.30;93.40;;;;;;4143728;28;19921;-56
2022/07/31 08:34:36;;;;;;;;;;;27.60;93.60;;;;;;4132427;28;19925;-56
2022/07/31 08:36:44;;;;;;;;;;;27.70;93.40;;;;;;4143631;28;20316;-56
2022/07/31 08:38:50;;;;;;;;;;;27.60;94.00;;;;;;4145192;28;19928;-56
2022/07/31 08:40:54;;;;;;;;;;;28.00;93.10;;;;;;4144428;28;19968;-56
2022/07/31 08:42:56;;;;;;;;;;;28.10;93.00;;;;;;4141094;28;19975;-56
2022/07/31 08:45:18;;;;;;;;;;;28.50;93.10;;;;;;4138995;28;19921;-55
2022/07/31 08:47:21;;;;;;;;;;;28.50;91.10;;;;;;4144485;28;20379;-54
2022/07/31 08:49:28;;;;;;;;;;;28.50;90.80;;;;;;4143742;28;19922;-54
2022/07/31 08:51:42;;;;;;;;;;;28.50;90.30;;;;;;4144929;28;20198;-56
2022/07/31 08:53:53;;;;;;;;;;;28.40;90.30;;;;;;4144781;28;19925;-56
2022/07/31 08:55:56;;;;;;;;;;;28.60;90.40;;;;;;4140423;28;19922;-55
2022/07/31 08:58:05;;;;;;;;;;;29.10;90.60;;;;;;4127463;28;19972;-55
2022/07/31 09:00:11;;;;;;;;;;;29.10;90.10;;;;;;4139787;28;19925;-57
2022/07/31 09:02:22;;;;;;;;;;;29.30;87.20;;;;;;4142248;28;19928;-56
2022/07/31 09:04:25;;;;;;;;;;;29.40;85.00;;;;;;4129933;28;20001;-55
2022/07/31 09:06:28;;;;;;;;;;;29.50;85.60;;;;;;4140195;28;19933;-55
2022/07/31 09:08:31;;;;;;;;;;;30.00;85.50;;;;;;4141249;28;20345;-56
2022/07/31 09:10:34;;;;;;;;;;;29.80;82.10;;;;;;4129367;28;19944;-55
2022/07/31 09:12:36;;;;;;;;;;;29.90;84.90;;;;;;4143407;28;19921;-56
2022/07/31 09:14:46;;;;;;;;;;;30.20;85.90;;;;;;4143165;28;19933;-55
2022/07/31 09:16:49;;;;;;;;;;;30.10;83.50;;;;;;4145090;28;20027;-57
2022/07/31 09:19:04;;;;;;;;;;;30.20;81.10;;;;;;4135703;28;19957;-56
2022/07/31 09:21:39;;;;;;;;;;;30.00;82.00;;;;;;4135774;28;19921;-55
2022/07/31 09:23:45;;;;;;;;;;;29.90;80.40;;;;;;4147500;28;20016;-55
2022/07/31 09:26:01;;;;;;;;;;;30.10;82.60;;;;;;4131096;28;19925;-55
2022/07/31 09:28:05;;;;;;;;;;;30.40;83.70;;;;;;4137285;28;19928;-56
2022/07/31 09:30:08;;;;;;;;;;;30.80;83.10;;;;;;4146403;28;20015;-56
2022/07/31 09:32:11;;;;;;;;;;;31.00;88.70;;;;;;4133440;28;19925;-56
2022/07/31 09:34:24;;;;;;;;;;;31.40;81.70;;;;;;4136163;28;19926;-56
2022/07/31 09:36:27;;;;;;;;;;;31.70;81.10;;;;;;4143041;28;20313;-56
2022/07/31 09:38:31;;;;;;;;;;;31.80;82.10;;;;;;4143836;28;19921;-55
2022/07/31 09:40:34;;;;;;;;;;;31.90;80.30;;;;;;4143413;28;20346;-56
2022/07/31 09:42:42;;;;;;;;;;;32.00;79.20;;;;;;4146454;28;20317;-57
2022/07/31 09:44:48;;;;;;;;;;;31.80;77.50;;;;;;4146754;28;19921;-56
2022/07/31 09:47:25;;;;;;;;;;;32.10;78.20;;;;;;4140759;28;20037;-55
2022/07/31 09:49:29;;;;;;;;;;;32.00;77.00;;;;;;4133199;28;20337;-55
2022/07/31 09:51:41;;;;;;;;;;;31.90;77.90;;;;;;4130916;28;19926;-55
2022/07/31 09:53:51;;;;;;;;;;;32.00;76.10;;;;;;4138256;28;19925;-56
2022/07/31 09:55:56;;;;;;;;;;;31.70;78.30;;;;;;4147068;28;20012;-56
2022/07/31 09:58:18;;;;;;;;;;;31.70;75.10;;;;;;4130843;28;20360;-56
2022/07/31 10:00:23;;;;;;;;;;;31.60;75.20;;;;;;4140336;28;19926;-57
2022/07/31 10:02:26;;;;;;;;;;;31.30;75.00;;;;;;4146759;28;19921;-56
2022/07/31 10:04:29;;;;;;;;;;;31.30;78.00;;;;;;4130859;28;19926;-56
2022/07/31 10:06:33;;;;;;;;;;;31.60;77.30;;;;;;4138415;28;20047;-56
2022/07/31 10:08:55;;;;;;;;;;;32.30;76.40;;;;;;4146849;28;19928;-56
2022/07/31 10:10:58;;;;;;;;;;;32.60;75.60;;;;;;4146284;28;20107;-56
2022/07/31 10:13:02;;;;;;;;;;;32.60;74.70;;;;;;4146571;28;20414;-56
2022/07/31 10:15:11;;;;;;;;;;;32.70;73.00;;;;;;4146361;28;20289;-55
2022/07/31 10:17:16;;;;;;;;;;;32.70;75.20;;;;;;4139118;28;19929;-56
2022/07/31 10:19:31;;;;;;;;;;;32.60;71.00;;;;;;4145328;28;19926;-56
2022/07/31 10:21:36;;;;;;;;;;;32.30;70.50;;;;;;4144949;28;20443;-57
2022/07/31 10:23:42;;;;;;;;;;;32.00;72.30;;;;;;4132894;28;19921;-56
2022/07/31 10:25:47;;;;;;;;;;;31.40;70.20;;;;;;4145277;28;19921;-55
2022/07/31 10:27:58;;;;;;;;;;;31.70;73.40;;;;;;4139249;28;20278;-57
2022/07/31 10:30:01;;;;;;;;;;;32.10;71.60;;;;;;4130087;28;19973;-57
2022/07/31 10:32:11;;;;;;;;;;;32.20;70.30;;;;;;4138715;28;19971;-56
2022/07/31 10:34:14;;;;;;;;;;;32.10;75.50;;;;;;4146481;28;19929;-56
2022/07/31 10:36:19;;;;;;;;;;;32.30;74.40;;;;;;4128771;28;19925;-56
2022/07/31 10:38:27;;;;;;;;;;;32.60;70.30;;;;;;4142362;28;20023;-56
2022/07/31 10:41:06;;;;;;;;;;;32.60;68.90;;;;;;4146230;28;19929;-56
2022/07/31 10:43:11;;;;;;;;;;;32.30;68.90;;;;;;4111332;28;19926;-57
2022/07/31 10:45:16;;;;;;;;;;;32.40;66.80;;;;;;4111883;28;19965;-56
2022/07/31 10:47:18;;;;;;;;;;;32.20;68.60;;;;;;4111708;28;19972;-56
2022/07/31 10:49:40;;;;;;;;;;;32.40;70.00;;;;;;4109966;28;20428;-55
2022/07/31 10:51:52;;;;;;;;;;;32.70;69.30;;;;;;4095464;28;19933;-56
2022/07/31 10:53:57;;;;;;;;;;;32.50;68.20;;;;;;4099302;28;19929;-56
2022/07/31 10:56:04;;;;;;;;;;;32.80;70.00;;;;;;4105864;28;19962;-57
2022/07/31 10:58:09;;;;;;;;;;;33.10;70.50;;;;;;4102947;28;20420;-56
2022/07/31 11:00:16;;;;;;;;;;;33.10;68.00;;;;;;4086293;28;19925;-56
2022/07/31 11:02:28;;;;;;;;;;;33.10;65.10;;;;;;4111634;28;19969;-55
2022/07/31 11:04:36;;;;;;;;;;;32.60;65.80;;;;;;4111468;28;20291;-55
2022/07/31 11:06:39;;;;;;;;;;;32.80;65.30;;;;;;4107420;28;20459;-56
2022/07/31 11:08:52;;;;;;;;;;;33.20;65.80;;;;;;4094340;29;20470;-56
2022/07/31 11:11:03;;;;;;;;;;;33.60;62.40;;;;;;4108134;28;19926;-56
2022/07/31 11:13:07;;;;;;;;;;;33.50;62.10;;;;;;4102754;28;19969;-57
2022/07/31 11:15:22;;;;;;;;;;;33.30;61.30;;;;;;4091143;29;20295;-56
2022/07/31 11:17:37;;;;;;;;;;;33.40;60.80;;;;;;4107501;28;20057;-57
2022/07/31 11:20:00;;;;;;;;;;;33.80;65.30;;;;;;4132699;28;20020;-56
2022/07/31 11:22:14;;;;;;;;;;;34.40;61.90;;;;;;4145901;28;20276;-56
2022/07/31 11:24:34;;;;;;;;;;;34.10;59.70;;;;;;4144303;28;20349;-57
2022/07/31 11:26:48;;;;;;;;;;;34.20;62.90;;;;;;4139800;28;19925;-57
2022/07/31 11:28:51;;;;;;;;;;;34.40;66.40;;;;;;4141622;28;19925;-55
2022/07/31 11:30:58;;;;;;;;;;;34.30;61.10;;;;;;4129416;28;19928;-56
2022/07/31 11:33:00;;;;;;;;;;;34.10;63.70;;;;;;4138925;28;20165;-55
2022/07/31 11:35:03;;;;;;;;;;;34.00;61.50;;;;;;4141618;28;19987;-56
2022/07/31 11:37:14;;;;;;;;;;;34.20;61.20;;;;;;4145681;28;19996;-56
2022/07/31 11:39:18;;;;;;;;;;;33.60;59.70;;;;;;4145482;28;20024;-57
2022/07/31 11:41:26;;;;;;;;;;;33.90;62.80;;;;;;4144544;28;19941;-56
2022/07/31 11:43:28;;;;;;;;;;;34.20;62.30;;;;;;4134533;28;19925;-57
2022/07/31 11:45:32;;;;;;;;;;;33.90;60.70;;;;;;4145322;28;20300;-56
2022/07/31 11:47:38;;;;;;;;;;;33.50;60.80;;;;;;4144870;28;19968;-56
2022/07/31 11:50:02;;;;;;;;;;;33.50;59.80;;;;;;4137021;28;19935;-55
2022/07/31 11:52:06;;;;;;;;;;;33.90;62.60;;;;;;4145234;28;19933;-56
2022/07/31 11:54:20;;;;;;;;;;;34.20;61.90;;;;;;4144690;28;19929;-56
2022/07/31 11:56:25;;;;;;;;;;;33.80;60.00;;;;;;4144384;28;19976;-55
2022/07/31 11:58:29;;;;;;;;;;;34.00;60.30;;;;;;4134780;28;19980;-56
2022/07/31 12:00:31;;;;;;;;;;;34.30;61.20;;;;;;4129573;28;20346;-57
2022/07/31 12:02:33;;;;;;;;;;;34.30;59.10;;;;;;4145299;28;20322;-56
2022/07/31 12:04:37;;;;;;;;;;;34.30;60.10;;;;;;4135621;28;19921;-56
2022/07/31 12:06:42;;;;;;;;;;;34.30;59.60;;;;;;4134436;28;19925;-56
2022/07/31 12:08:49;;;;;;;;;;;34.30;60.00;;;;;;4143306;28;19932;-56
2022/07/31 12:10:53;;;;;;;;;;;34.20;59.60;;;;;;4143706;28;19931;-55
2022/07/31 12:12:56;;;;;;;;;;;34.20;60.40;;;;;;4144738;28;19925;-55
2022/07/31 12:14:59;;;;;;;;;;;34.00;59.40;;;;;;4144441;28;20028;-55
2022/07/31 12:17:02;;;;;;;;;;;33.80;60.30;;;;;;4140651;28;19926;-57
2022/07/31 12:19:07;;;;;;;;;;;33.70;61.00;;;;;;4144986;28;19921;-56
2022/07/31 12:21:10;;;;;;;;;;;33.70;58.70;;;;;;4144382;28;19932;-55
2022/07/31 12:23:15;;;;;;;;;;;33.10;60.40;;;;;;4139984;28;20027;-56